UKHH/HRK METAR and TAF weather

Enter ICAO airport designator
Station Type Date Time Source
UKHH METAR 2019/06/20 07:00 UTC NOAA

UKHH 200700Z 13004MPS 090V160 CAVOK 28/10 Q1016 R07/0///81 NOSIG


Station Type Date Time Source
UKHH Decoded METAR 2019/06/20 07:00 UTC NOAA

Kharkiv, Ukraine (UKHH) 49-58N 036-08E 155M
Jun 20, 2019 - 03:00 AM EDT / 2019.06.20 0700 UTC
Wind: from the SE (130 degrees) at 9 MPH (8 KT) (direction variable):0
Visibility: greater than 7 mile(s):0
Temperature: 82 F (28 C)
Dew Point: 50 F (10 C)
Relative Humidity: 32%
Pressure (altimeter): 30.00 in. Hg (1016 hPa)
ob: UKHH 200700Z 13004MPS 090V160 CAVOK 28/10 Q1016 R07/0///81 NOSIG
cycle: 7

Station Type Date Time Source
UKHH TAF 2019/06/20 06:09 UTC NOAA

TAF UKHH 200502Z 2006/2106 06005MPS 9999 SCT030 TX31/2012Z TN19/2102Z
TEMPO 2006/2018 08007G12MPS

Example: see airport list